Time;durP1;ratioP1;P1;durP2;ratioP2;P2;SDS_P1;SDS_P2;PMS_P1;PMS_P2;Temp;Humidity;BMP_temperature;BMP_pressure;BME280_temperature;BME280_humidity;BME280_pressure;Samples;Min_cycle;Max_cycle;Signal;HPM_P1;HPM_P2
2022/12/18 00:01:15;;;;;;;100.72;39.67;;;-3.30;99.90;;;;;;5073830;28;20512;-35
2022/12/18 00:03:41;;;;;;;100.55;42.00;;;-3.30;99.90;;;;;;5069769;28;20091;-35
2022/12/18 00:06:08;;;;;;;94.13;35.00;;;-3.30;99.90;;;;;;5071975;28;21402;-35
2022/12/18 00:08:34;;;;;;;98.30;41.75;;;-3.30;99.90;;;;;;5072649;28;20036;-35
2022/12/18 00:11:09;;;;;;;109.97;42.25;;;-3.30;99.90;;;;;;5071655;28;20464;-35
2022/12/18 00:13:35;;;;;;;100.82;41.20;;;-3.30;99.90;;;;;;5072473;28;20048;-35
2022/12/18 00:16:06;;;;;;;98.45;39.45;;;-3.40;99.90;;;;;;5071529;28;20040;-35
2022/12/18 00:18:32;;;;;;;98.28;40.95;;;-3.40;99.90;;;;;;5072583;28;20389;-35
2022/12/18 00:21:03;;;;;;;99.07;38.97;;;-3.40;99.90;;;;;;5072131;28;20115;-35
2022/12/18 00:23:30;;;;;;;94.85;38.72;;;-3.40;99.90;;;;;;5073910;28;20084;-35
2022/12/18 00:26:03;;;;;;;97.88;40.47;;;-3.40;99.90;;;;;;5072078;28;20044;-35
2022/12/18 00:28:29;;;;;;;109.03;44.47;;;-3.40;99.90;;;;;;5064046;28;20140;-35
2022/12/18 00:31:06;;;;;;;104.72;40.35;;;-3.40;99.90;;;;;;5072117;28;20047;-35
2022/12/18 00:33:32;;;;;;;94.07;39.70;;;-3.50;99.90;;;;;;5064416;28;20047;-35
2022/12/18 00:36:13;;;;;;;104.45;43.47;;;-3.50;99.90;;;;;;5067269;28;20032;-35
2022/12/18 00:38:39;;;;;;;111.07;43.50;;;-3.60;99.90;;;;;;5072364;28;20513;-35
2022/12/18 00:41:06;;;;;;;109.10;42.85;;;-3.60;99.90;;;;;;5071930;28;20045;-35
2022/12/18 00:43:35;;;;;;;110.30;44.20;;;-3.60;99.90;;;;;;5073238;28;20040;-35
2022/12/18 00:46:02;;;;;;;112.43;43.17;;;-3.60;99.90;;;;;;5067298;28;20040;-35
2022/12/18 00:48:28;;;;;;;108.47;41.90;;;-3.60;99.90;;;;;;5072449;28;20054;-35
2022/12/18 00:50:54;;;;;;;108.03;41.58;;;-3.70;99.90;;;;;;5068523;28;20036;-35
2022/12/18 00:53:19;;;;;;;113.50;43.15;;;-3.70;99.90;;;;;;5070093;28;20063;-35
2022/12/18 00:55:46;;;;;;;107.63;41.90;;;-3.80;99.90;;;;;;5071893;28;20036;-35
2022/12/18 00:58:13;;;;;;;120.88;44.22;;;-3.80;99.90;;;;;;5071536;28;20045;-35
2022/12/18 01:00:39;;;;;;;112.82;43.42;;;-3.90;99.90;;;;;;5063497;28;20449;-35
2022/12/18 01:03:05;;;;;;;109.88;43.05;;;-3.90;99.90;;;;;;5071716;28;20044;-37
2022/12/18 01:05:32;;;;;;;109.53;43.05;;;-4.00;99.90;;;;;;5067522;28;20447;-37
2022/12/18 01:07:58;;;;;;;116.50;42.90;;;-4.00;99.90;;;;;;5071847;28;20036;-37
2022/12/18 01:10:24;;;;;;;111.88;39.90;;;-4.00;99.90;;;;;;5068945;28;20044;-38
2022/12/18 01:12:50;;;;;;;120.53;43.92;;;-4.00;99.90;;;;;;5051195;28;20040;-38
2022/12/18 01:15:16;;;;;;;103.47;40.45;;;-4.10;99.90;;;;;;5068705;28;20037;-38
2022/12/18 01:17:43;;;;;;;112.18;42.33;;;-4.10;99.90;;;;;;5067466;28;20405;-38
2022/12/18 01:20:10;;;;;;;109.38;41.88;;;-4.10;99.90;;;;;;5071293;28;20174;-37
2022/12/18 01:22:36;;;;;;;108.28;43.08;;;-4.20;99.90;;;;;;5053936;28;20040;-38
2022/12/18 01:25:03;;;;;;;110.80;41.45;;;-4.30;99.90;;;;;;5071325;28;20048;-37
2022/12/18 01:27:29;;;;;;;111.40;39.05;;;-4.40;99.90;;;;;;5071060;28;20047;-38
2022/12/18 01:29:55;;;;;;;104.53;38.70;;;-4.40;99.90;;;;;;5071000;28;20383;-38
2022/12/18 01:32:21;;;;;;;111.53;43.28;;;-4.50;99.90;;;;;;5069820;28;20507;-38
2022/12/18 01:34:47;;;;;;;101.85;39.97;;;-4.50;99.90;;;;;;5078935;28;20497;-38
2022/12/18 01:37:13;;;;;;;109.85;42.20;;;-4.60;99.90;;;;;;5073898;28;20040;-38
2022/12/18 01:39:39;;;;;;;106.20;42.97;;;-4.60;99.90;;;;;;5062960;28;20119;-38
2022/12/18 01:42:14;;;;;;;106.35;40.50;;;-4.70;99.90;;;;;;5077137;28;20048;-37
2022/12/18 01:44:57;;;;;;;105.50;38.47;;;-4.70;99.90;;;;;;5080808;28;20048;-38
2022/12/18 01:47:32;;;;;;;103.82;40.08;;;-4.80;99.90;;;;;;5069865;28;20071;-38
2022/12/18 01:50:01;;;;;;;96.72;38.72;;;-4.80;99.90;;;;;;5069273;28;20082;-38
2022/12/18 01:52:30;;;;;;;104.72;39.15;;;-4.90;99.90;;;;;;5068008;28;20033;-38
2022/12/18 01:54:56;;;;;;;102.45;38.45;;;-5.00;99.90;;;;;;5077340;28;20068;-38
2022/12/18 01:57:23;;;;;;;96.18;37.22;;;-5.00;99.90;;;;;;5069372;28;20098;-38
2022/12/18 01:59:52;;;;;;;95.30;37.33;;;-5.00;99.90;;;;;;5079143;28;20040;-38
2022/12/18 02:02:19;;;;;;;91.30;37.55;;;-5.10;99.90;;;;;;5069065;28;20040;-38
2022/12/18 02:04:45;;;;;;;98.88;39.05;;;-5.20;99.90;;;;;;5069313;28;20044;-38
2022/12/18 02:07:17;;;;;;;92.25;34.53;;;-5.30;99.90;;;;;;5079104;28;20417;-37
2022/12/18 02:10:06;;;;;;;97.65;39.08;;;-5.30;99.90;;;;;;5065235;28;20115;-38
2022/12/18 02:13:06;;;;;;;94.70;36.83;;;-5.30;99.90;;;;;;5067898;28;20089;-38
2022/12/18 02:15:57;;;;;;;96.63;39.97;;;-5.30;99.90;;;;;;5067313;28;20036;-38
2022/12/18 02:18:30;;;;;;;91.95;37.42;;;-5.30;99.90;;;;;;5068412;28;20048;-38
2022/12/18 02:21:05;;;;;;;94.30;39.42;;;-5.40;99.90;;;;;;5069763;28;20498;-38
2022/12/18 02:23:46;;;;;;;96.72;38.22;;;-5.40;99.90;;;;;;5069533;28;20120;-38
2022/12/18 02:26:18;;;;;;;96.47;37.63;;;-5.40;99.90;;;;;;5069976;28;20071;-37
2022/12/18 02:29:11;;;;;;;94.68;37.70;;;-5.40;99.90;;;;;;5068737;28;20575;-38
2022/12/18 02:31:43;;;;;;;88.18;39.17;;;-5.50;99.90;;;;;;5084068;28;20044;-38
2022/12/18 02:34:11;;;;;;;93.20;36.22;;;-5.50;99.90;;;;;;5066209;28;20068;-38
2022/12/18 02:36:39;;;;;;;87.53;36.40;;;-5.60;99.90;;;;;;5066346;28;20185;-38
2022/12/18 02:39:11;;;;;;;99.15;39.97;;;-5.60;99.90;;;;;;5062618;28;20127;-37
2022/12/18 02:41:38;;;;;;;87.97;35.88;;;-5.70;99.90;;;;;;5062073;28;20510;-37
2022/12/18 02:44:11;;;;;;;101.85;40.10;;;-5.70;99.90;;;;;;5058634;28;20045;-38
2022/12/18 02:46:37;;;;;;;98.47;40.38;;;-5.70;99.90;;;;;;5069908;28;20064;-36
2022/12/18 02:49:12;;;;;;;104.20;40.17;;;-5.70;99.90;;;;;;5069271;28;20075;-37
2022/12/18 02:51:56;;;;;;;94.65;40.90;;;-5.70;99.90;;;;;;5060668;28;20033;-36
2022/12/18 02:54:34;;;;;;;94.68;39.58;;;-5.70;99.90;;;;;;5061314;28;20065;-38
2022/12/18 02:57:11;;;;;;;85.57;37.38;;;-5.80;99.90;;;;;;5068897;28;20044;-38
2022/12/18 02:59:49;;;;;;;91.38;37.22;;;-5.80;99.90;;;;;;5068433;28;20048;-38
2022/12/18 03:02:19;;;;;;;86.63;38.28;;;-5.90;99.90;;;;;;5069584;28;20588;-38
2022/12/18 03:04:56;;;;;;;92.22;38.70;;;-6.00;99.90;;;;;;5069411;28;20043;-38
2022/12/18 03:07:33;;;;;;;85.85;36.03;;;-6.00;99.90;;;;;;5072588;28;20086;-38
2022/12/18 03:10:00;;;;;;;89.93;36.25;;;-6.00;99.90;;;;;;5068000;28;20036;-37
2022/12/18 03:12:37;;;;;;;86.80;35.55;;;-6.00;99.90;;;;;;5069480;28;20037;-38
2022/12/18 03:15:08;;;;;;;87.65;35.30;;;-6.10;99.90;;;;;;5067776;28;20040;-38
2022/12/18 03:17:34;;;;;;;83.35;35.40;;;-6.10;99.90;;;;;;5064661;28;20180;-38
2022/12/18 03:20:09;;;;;;;83.60;34.88;;;-6.10;99.90;;;;;;5068949;28;20157;-37
2022/12/18 03:22:38;;;;;;;79.13;34.33;;;-6.10;99.90;;;;;;5068966;28;20040;-37
2022/12/18 03:25:08;;;;;;;78.03;36.10;;;-6.20;99.90;;;;;;5067976;28;20037;-38
2022/12/18 03:27:38;;;;;;;73.63;33.53;;;-6.20;99.90;;;;;;5066706;28;20110;-38
2022/12/18 03:30:08;;;;;;;79.72;33.58;;;-6.20;99.90;;;;;;5066492;28;20436;-38
2022/12/18 03:32:56;;;;;;;76.90;34.63;;;-6.20;99.90;;;;;;5069115;28;20115;-37
2022/12/18 03:35:29;;;;;;;74.80;32.30;;;-6.20;99.90;;;;;;5067879;28;20041;-38
2022/12/18 03:37:55;;;;;;;65.83;32.60;;;-6.20;99.90;;;;;;5066047;28;20048;-38
2022/12/18 03:40:29;;;;;;;64.10;31.45;;;-6.30;99.90;;;;;;5068754;28;20093;-38
2022/12/18 03:43:33;;;;;;;76.75;32.83;;;-6.30;99.90;;;;;;5068604;28;20040;-38
2022/12/18 03:46:06;;;;;;;67.40;32.60;;;-6.40;99.90;;;;;;5070306;28;20055;-37
2022/12/18 03:48:41;;;;;;;69.57;29.73;;;-6.40;99.90;;;;;;5088324;28;20078;-38
2022/12/18 03:51:23;;;;;;;68.45;30.77;;;-6.40;99.90;;;;;;5072088;28;20037;-36
2022/12/18 03:53:59;;;;;;;65.22;29.42;;;-6.40;99.90;;;;;;5068935;28;20413;-36
2022/12/18 03:56:29;;;;;;;67.22;30.52;;;-6.40;99.90;;;;;;5070619;28;20417;-38
2022/12/18 03:58:57;;;;;;;68.68;30.25;;;-6.40;99.90;;;;;;5073522;28;20541;-37
2022/12/18 04:01:31;;;;;;;69.50;29.92;;;-6.50;99.90;;;;;;5071622;28;20037;-38
2022/12/18 04:04:00;;;;;;;72.40;30.88;;;-6.50;99.90;;;;;;5074155;28;20048;-37
2022/12/18 04:06:27;;;;;;;66.07;31.17;;;-6.60;99.90;;;;;;5070201;28;20093;-37
2022/12/18 04:08:53;;;;;;;60.15;28.20;;;-6.60;99.90;;;;;;5067318;28;20482;-37
2022/12/18 04:11:19;;;;;;;59.25;26.65;;;-6.70;99.90;;;;;;5064061;28;20032;-38
2022/12/18 04:13:45;;;;;;;62.42;29.17;;;-6.60;99.90;;;;;;5071546;28;20040;-37
2022/12/18 04:16:10;;;;;;;66.18;29.85;;;-6.70;99.90;;;;;;5069216;28;20048;-39
2022/12/18 04:18:36;;;;;;;57.22;28.48;;;-6.70;99.90;;;;;;5066522;28;20036;-37
2022/12/18 04:21:02;;;;;;;64.38;29.20;;;-6.70;99.90;;;;;;5071681;28;20093;-37
2022/12/18 04:23:28;;;;;;;64.85;28.52;;;-6.60;99.90;;;;;;5067969;28;20044;-38
2022/12/18 04:25:54;;;;;;;64.78;28.48;;;-6.70;99.90;;;;;;5067472;28;20083;-38
2022/12/18 04:28:20;;;;;;;60.65;26.83;;;-6.70;99.90;;;;;;5070682;28;20036;-38
2022/12/18 04:30:49;;;;;;;62.22;26.75;;;-6.70;99.90;;;;;;5066755;28;20044;-38
2022/12/18 04:33:18;;;;;;;59.13;26.98;;;-6.70;99.90;;;;;;5065750;28;20041;-38
2022/12/18 04:35:44;;;;;;;60.03;26.75;;;-6.70;99.90;;;;;;5065815;28;20119;-38
2022/12/18 04:38:10;;;;;;;65.50;29.50;;;-6.70;99.90;;;;;;5071376;28;20052;-38
2022/12/18 04:40:36;;;;;;;59.00;26.88;;;-6.60;99.90;;;;;;5063448;28;20090;-38
2022/12/18 04:43:03;;;;;;;57.22;28.10;;;-6.70;99.90;;;;;;5061771;28;20047;-38
2022/12/18 04:45:33;;;;;;;67.15;29.00;;;-6.60;99.90;;;;;;5066044;28;20159;-38
2022/12/18 04:48:00;;;;;;;57.58;27.60;;;-6.70;99.90;;;;;;5052539;28;20037;-38
2022/12/18 04:50:26;;;;;;;56.38;24.73;;;-6.70;99.90;;;;;;5070978;28;20043;-38
2022/12/18 04:52:52;;;;;;;53.92;23.52;;;-6.70;99.90;;;;;;5068095;28;20041;-38
2022/12/18 04:55:18;;;;;;;58.10;25.33;;;-6.80;99.90;;;;;;5070773;28;20076;-38
2022/12/18 04:57:43;;;;;;;51.70;24.75;;;-6.80;99.90;;;;;;5064449;28;20060;-38
2022/12/18 05:00:10;;;;;;;51.20;24.67;;;-6.80;99.90;;;;;;5063392;28;20051;-37
2022/12/18 05:02:36;;;;;;;56.50;25.67;;;-6.80;99.90;;;;;;5071494;28;20490;-38
2022/12/18 05:05:02;;;;;;;48.92;24.25;;;-6.80;99.90;;;;;;5062735;28;20047;-38
2022/12/18 05:07:27;;;;;;;48.63;22.63;;;-6.90;99.90;;;;;;5071317;28;20086;-38
2022/12/18 05:09:53;;;;;;;51.72;24.80;;;-6.90;99.90;;;;;;5068079;28;20037;-37
2022/12/18 05:12:19;;;;;;;52.53;26.52;;;-6.90;99.90;;;;;;5066328;28;20116;-38
2022/12/18 05:14:44;;;;;;;53.25;24.23;;;-7.00;99.90;;;;;;5065784;28;20037;-38
2022/12/18 05:17:10;;;;;;;50.30;24.85;;;-6.90;99.90;;;;;;5063242;28;20433;-38
2022/12/18 05:19:39;;;;;;;49.67;24.50;;;-6.90;99.90;;;;;;5063494;28;20047;-38
2022/12/18 05:22:08;;;;;;;51.58;25.52;;;-6.90;99.90;;;;;;5060405;28;20046;-38
2022/12/18 05:24:34;;;;;;;48.45;24.20;;;-7.00;99.90;;;;;;5070759;28;20106;-38
2022/12/18 05:26:59;;;;;;;41.88;22.33;;;-7.00;99.90;;;;;;5060807;28;20036;-38
2022/12/18 05:29:25;;;;;;;47.45;23.05;;;-7.00;99.90;;;;;;5070753;28;20046;-38
2022/12/18 05:31:51;;;;;;;51.25;24.02;;;-7.00;99.90;;;;;;5070264;28;20436;-38
2022/12/18 05:34:17;;;;;;;50.40;25.20;;;-7.00;99.90;;;;;;5069992;28;20077;-38
2022/12/18 05:36:43;;;;;;;51.88;23.02;;;-7.00;99.90;;;;;;5070821;28;20048;-38
2022/12/18 05:39:08;;;;;;;48.25;24.17;;;-7.00;99.90;;;;;;5068673;28;20113;-38
2022/12/18 05:41:34;;;;;;;39.58;21.10;;;-7.00;99.90;;;;;;5050798;28;20050;-38
2022/12/18 05:44:00;;;;;;;44.58;21.70;;;-7.10;99.90;;;;;;5052738;28;20060;-37
2022/12/18 05:46:26;;;;;;;46.65;22.05;;;-7.10;99.90;;;;;;5067429;28;20040;-38
2022/12/18 05:48:52;;;;;;;46.28;22.88;;;-7.20;99.90;;;;;;5062614;28;20033;-38
2022/12/18 05:51:20;;;;;;;41.53;21.88;;;-7.20;99.90;;;;;;5067637;28;20047;-38
2022/12/18 05:53:47;;;;;;;46.45;24.08;;;-7.20;99.90;;;;;;5069901;28;20105;-38
2022/12/18 05:56:18;;;;;;;44.45;23.65;;;-7.20;99.90;;;;;;5069533;28;20102;-38
2022/12/18 05:58:44;;;;;;;46.22;23.50;;;-7.20;99.90;;;;;;5064484;28;20510;-38
2022/12/18 06:01:17;;;;;;;47.08;23.65;;;-7.20;99.90;;;;;;5083061;28;20124;-38
2022/12/18 06:03:44;;;;;;;45.67;22.90;;;-7.20;99.90;;;;;;5069910;28;20040;-38
2022/12/18 06:06:14;;;;;;;51.72;23.05;;;-7.20;99.90;;;;;;5067639;28;20120;-38
2022/12/18 06:08:40;;;;;;;48.35;21.75;;;-7.10;99.90;;;;;;5067977;28;20055;-37
2022/12/18 06:11:06;;;;;;;45.30;22.05;;;-7.10;99.90;;;;;;5069352;28;20051;-37
2022/12/18 06:13:32;;;;;;;48.40;21.85;;;-7.10;99.90;;;;;;5063503;28;20048;-37
2022/12/18 06:15:57;;;;;;;47.28;23.33;;;-7.20;99.90;;;;;;5069560;28;20039;-37
2022/12/18 06:18:23;;;;;;;43.97;21.88;;;-7.20;99.90;;;;;;5066454;28;20472;-37
2022/12/18 06:20:59;;;;;;;44.80;20.90;;;-7.20;99.90;;;;;;5067151;28;20036;-37
2022/12/18 06:23:26;;;;;;;48.80;21.15;;;-7.20;99.90;;;;;;5068991;28;20046;-37
2022/12/18 06:25:52;;;;;;;45.90;20.92;;;-7.30;99.90;;;;;;5069720;28;20103;-37
2022/12/18 06:28:18;;;;;;;43.00;20.48;;;-7.30;99.90;;;;;;5068528;28;20071;-37
2022/12/18 06:30:45;;;;;;;40.75;20.42;;;-7.30;99.90;;;;;;5062312;28;20383;-38
2022/12/18 06:33:11;;;;;;;45.65;21.40;;;-7.30;99.90;;;;;;5069242;28;20040;-38
2022/12/18 06:35:36;;;;;;;48.58;23.15;;;-7.30;99.90;;;;;;5069608;28;20414;-38
2022/12/18 06:38:02;;;;;;;41.17;21.58;;;-7.30;99.90;;;;;;5063559;28;20029;-37
2022/12/18 06:40:28;;;;;;;39.50;22.27;;;-7.30;99.90;;;;;;5067198;28;20052;-38
2022/12/18 06:42:54;;;;;;;38.45;19.85;;;-7.30;99.90;;;;;;5067262;28;20083;-37
2022/12/18 06:45:20;;;;;;;38.40;20.58;;;-7.30;99.90;;;;;;5068852;28;20033;-37
2022/12/18 06:47:45;;;;;;;38.95;21.50;;;-7.40;99.90;;;;;;5066604;28;20037;-37
2022/12/18 06:50:12;;;;;;;44.92;21.13;;;-7.40;99.90;;;;;;5069120;28;20044;-37
2022/12/18 06:52:40;;;;;;;39.78;21.95;;;-7.40;99.90;;;;;;5069281;28;20043;-37
2022/12/18 06:55:09;;;;;;;41.47;23.15;;;-7.40;99.90;;;;;;5069014;28;20119;-37
2022/12/18 06:57:35;;;;;;;44.55;23.45;;;-7.40;99.90;;;;;;5068724;28;20079;-38
2022/12/18 07:00:01;;;;;;;41.65;19.83;;;-7.40;99.90;;;;;;5065888;28;20060;-38
2022/12/18 07:02:27;;;;;;;44.25;22.63;;;-7.40;99.90;;;;;;5063846;28;20494;-38
2022/12/18 07:04:52;;;;;;;41.83;21.13;;;-7.40;99.90;;;;;;5067867;28;20045;-38
2022/12/18 07:07:19;;;;;;;38.20;21.55;;;-7.40;99.90;;;;;;5060832;28;20368;-37
2022/12/18 07:09:45;;;;;;;43.95;20.83;;;-7.40;99.90;;;;;;5067932;28;20070;-38
2022/12/18 07:12:11;;;;;;;45.78;22.15;;;-7.40;99.90;;;;;;5067637;28;20482;-38
2022/12/18 07:14:36;;;;;;;44.50;22.95;;;-7.40;99.90;;;;;;5072636;28;20036;-38
2022/12/18 07:17:02;;;;;;;42.03;23.52;;;-7.40;99.90;;;;;;5066974;28;20040;-38
2022/12/18 07:19:29;;;;;;;36.75;21.25;;;-7.30;99.90;;;;;;5084426;28;20398;-38
2022/12/18 07:21:55;;;;;;;42.88;21.60;;;-7.30;99.90;;;;;;5091704;28;20130;-38
2022/12/18 07:24:21;;;;;;;38.97;20.33;;;-7.30;99.90;;;;;;5074750;28;20041;-36
2022/12/18 07:26:47;;;;;;;36.30;21.30;;;-7.20;99.90;;;;;;5073396;28;20428;-37
2022/12/18 07:29:12;;;;;;;33.75;19.17;;;-7.30;99.90;;;;;;5070666;28;20071;-38
2022/12/18 07:31:39;;;;;;;41.28;21.70;;;-7.30;99.90;;;;;;5073096;28;20038;-38
2022/12/18 07:34:05;;;;;;;35.47;20.15;;;-7.20;99.90;;;;;;5068965;28;20123;-38
2022/12/18 07:36:32;;;;;;;33.08;19.67;;;-7.20;99.90;;;;;;5073003;28;20131;-38
2022/12/18 07:38:57;;;;;;;34.78;18.45;;;-7.20;99.90;;;;;;5073523;28;20050;-38
2022/12/18 07:41:23;;;;;;;40.28;21.42;;;-7.10;99.90;;;;;;5070463;28;20037;-37
2022/12/18 07:43:49;;;;;;;41.03;20.33;;;-7.10;99.90;;;;;;5072480;28;20044;-37
2022/12/18 07:46:16;;;;;;;32.08;19.20;;;-7.10;99.90;;;;;;5067526;28;20086;-38
2022/12/18 07:48:43;;;;;;;37.78;18.77;;;-7.00;99.90;;;;;;5071257;28;20131;-38
2022/12/18 07:51:13;;;;;;;35.42;18.98;;;-7.00;99.90;;;;;;5052075;28;20036;-38
2022/12/18 07:53:40;;;;;;;38.47;19.60;;;-6.90;99.90;;;;;;5071983;28;20043;-37
2022/12/18 07:56:11;;;;;;;34.78;18.38;;;-6.90;99.90;;;;;;5067556;28;20072;-38
2022/12/18 07:58:37;;;;;;;33.75;20.10;;;-6.80;99.90;;;;;;5070404;28;20041;-38
2022/12/18 08:01:13;;;;;;;31.20;18.27;;;-6.70;99.90;;;;;;5067979;28;20080;-37
2022/12/18 08:03:40;;;;;;;36.38;18.98;;;-6.70;99.90;;;;;;5073382;28;20433;-38
2022/12/18 08:06:09;;;;;;;32.58;18.65;;;-6.70;99.90;;;;;;5072882;28;20031;-37
2022/12/18 08:08:36;;;;;;;33.92;17.35;;;-6.60;99.90;;;;;;5071675;28;20043;-38
2022/12/18 08:11:02;;;;;;;33.95;18.65;;;-6.50;99.90;;;;;;5069715;28;20505;-37
2022/12/18 08:13:28;;;;;;;31.15;19.02;;;-6.50;99.90;;;;;;5070054;28;20082;-37
2022/12/18 08:16:06;;;;;;;34.10;18.23;;;-6.40;99.90;;;;;;5077030;28;20047;-38
2022/12/18 08:18:37;;;;;;;32.03;18.60;;;-6.40;99.90;;;;;;5054611;28;20072;-38
2022/12/18 08:21:22;;;;;;;33.03;17.73;;;-6.40;99.90;;;;;;5038789;28;21381;-38
2022/12/18 08:23:49;;;;;;;30.75;17.33;;;-6.30;99.90;;;;;;4971638;28;20427;-38
2022/12/18 08:26:16;;;;;;;30.02;17.38;;;-6.30;99.90;;;;;;4935309;28;20605;-38
2022/12/18 08:28:43;;;;;;;27.83;16.80;;;-6.20;99.90;;;;;;4870734;29;20046;-38
2022/12/18 08:31:10;;;;;;;31.25;16.83;;;-6.20;99.90;;;;;;4771206;29;20056;-37
2022/12/18 08:33:37;;;;;;;30.60;19.08;;;-6.10;99.90;;;;;;4698451;30;20050;-38
2022/12/18 08:45:28;;;;;;;30.70;18.08;;;-5.90;99.90;;;;;;4956627;28;20525;-36
2022/12/18 08:47:59;;;;;;;32.70;17.88;;;-5.80;99.90;;;;;;4910453;28;20054;-37
2022/12/18 08:50:36;;;;;;;31.83;18.90;;;-5.80;99.90;;;;;;4846276;29;20785;-35
2022/12/18 08:53:14;;;;;;;33.92;18.60;;;-5.80;99.90;;;;;;4735603;30;20389;-35
2022/12/18 09:09:45;;;;;;;27.88;17.13;;;-5.60;99.90;;;;;;5164989;27;20141;-32
2022/12/18 09:12:10;;;;;;;29.48;16.55;;;-5.20;99.90;;;;;;5119422;27;20039;-32
2022/12/18 09:14:37;;;;;;;27.85;16.50;;;-5.10;99.90;;;;;;5142462;27;20044;-32
2022/12/18 09:17:03;;;;;;;29.30;16.27;;;-4.90;99.90;;;;;;5112998;28;20036;-33
2022/12/18 09:19:29;;;;;;;26.58;15.80;;;-4.80;99.90;;;;;;5090933;28;20047;-33
2022/12/18 09:21:55;;;;;;;26.83;15.43;;;-4.70;99.90;;;;;;5094242;28;20056;-32
2022/12/18 09:28:36;;;;;;;22.65;14.77;;;-4.50;99.90;;;;;;4959932;28;20073;-35
2022/12/18 09:31:10;;;;;;;22.45;13.93;;;-4.20;99.90;;;;;;4883317;23;20049;-81
2022/12/18 10:03:51;;;;;;;14.55;10.50;;;-1.60;99.90;;;;;;6314709;22;20019;-31
2022/12/18 10:06:39;;;;;;;17.40;10.65;;;-1.60;99.90;;;;;;6285046;22;20024;-31
2022/12/18 10:09:50;;;;;;;16.58;9.85;;;-1.60;99.90;;;;;;6250970;22;20020;-31
2022/12/18 10:12:18;;;;;;;15.90;11.13;;;-1.60;99.90;;;;;;6171870;23;20448;-31
2022/12/18 10:14:47;;;;;;;12.77;8.95;;;-1.50;99.90;;;;;;6146977;23;20022;-31
2022/12/18 10:17:35;;;;;;;13.98;9.68;;;-1.30;99.90;;;;;;6213909;23;20440;-31
2022/12/18 10:20:14;;;;;;;15.32;10.43;;;-1.30;99.90;;;;;;6127506;23;20403;-31
2022/12/18 10:23:01;;;;;;;13.02;9.75;;;-1.40;99.90;;;;;;5939908;24;20357;-31
2022/12/18 10:28:58;;;;;;;15.32;9.50;;;-1.60;99.90;;;;;;5213231;27;20475;-31
2022/12/18 10:31:29;;;;;;;12.25;8.68;;;-1.70;99.90;;;;;;5170628;27;20516;-32
2022/12/18 10:34:04;;;;;;;11.63;9.05;;;-1.70;99.90;;;;;;5148392;27;20047;-31
2022/12/18 10:36:30;;;;;;;12.55;8.57;;;-1.80;99.90;;;;;;5149809;27;20087;-32
2022/12/18 10:39:18;;;;;;;12.23;8.90;;;-1.80;99.90;;;;;;5111590;28;20040;-31
2022/12/18 10:41:44;;;;;;;11.88;8.38;;;-1.80;99.90;;;;;;5039371;28;20048;-32
2022/12/18 10:44:22;;;;;;;12.35;8.85;;;-1.80;99.90;;;;;;5041766;28;20056;-32
2022/12/18 10:46:55;;;;;;;11.38;8.10;;;-1.80;99.90;;;;;;5075056;28;20131;-32
2022/12/18 10:52:18;;;;;;;11.80;7.82;;;-1.80;99.90;;;;;;5213804;27;20127;-33
2022/12/18 10:54:54;;;;;;;11.18;7.53;;;-1.60;99.90;;;;;;5141210;27;20038;-33
2022/12/18 10:57:26;;;;;;;10.25;7.40;;;-1.50;99.90;;;;;;5147180;27;20047;-33
2022/12/18 10:59:57;;;;;;;9.98;6.82;;;-1.50;99.90;;;;;;5112693;27;20047;-32
2022/12/18 11:02:34;;;;;;;9.63;7.10;;;-1.50;99.90;;;;;;5073307;28;20592;-33
2022/12/18 11:05:00;;;;;;;8.88;6.47;;;-1.60;99.90;;;;;;4958554;28;20079;-33
2022/12/18 11:07:46;;;;;;;9.23;6.68;;;-1.60;99.90;;;;;;4998041;28;20432;-33
2022/12/18 11:10:27;;;;;;;9.25;6.80;;;-1.50;99.90;;;;;;4844704;29;20055;-32
2022/12/18 11:13:19;;;;;;;9.63;6.35;;;-1.60;99.90;;;;;;5211107;27;20143;-33
2022/12/18 11:15:46;;;;;;;8.80;6.10;;;-1.60;99.90;;;;;;5176008;27;20065;-33
2022/12/18 11:18:20;;;;;;;8.10;6.50;;;-1.60;99.90;;;;;;5154748;27;20207;-33
2022/12/18 11:21:01;;;;;;;8.60;6.00;;;-1.60;99.90;;;;;;5150009;27;20047;-33
2022/12/18 11:23:27;;;;;;;8.07;5.95;;;-1.50;99.90;;;;;;5133070;27;20054;-33
2022/12/18 11:26:02;;;;;;;8.35;6.40;;;-1.50;99.90;;;;;;5165196;27;20135;-32
2022/12/18 11:28:41;;;;;;;8.25;6.00;;;-1.50;99.90;;;;;;5105532;28;20055;-33
2022/12/18 11:31:27;;;;;;;7.75;5.60;;;-1.40;99.90;;;;;;5192899;27;20128;-33
2022/12/18 11:34:09;;;;;;;7.60;5.72;;;-1.40;99.90;;;;;;5155070;27;20046;-33
2022/12/18 11:36:47;;;;;;;8.05;5.72;;;-1.40;99.90;;;;;;5128830;27;20491;-35
2022/12/18 11:39:21;;;;;;;8.68;5.70;;;-1.30;99.90;;;;;;5106312;28;20040;-33
2022/12/18 11:42:11;;;;;;;10.95;6.93;;;-1.20;99.90;;;;;;5023121;28;20467;-33
2022/12/18 11:45:26;;;;;;;7.95;6.03;;;-1.20;99.90;;;;;;4872973;29;20038;-31
2022/12/18 11:47:57;;;;;;;;;;;-1.10;99.90;;;;;;4777447;29;20142;-31
2022/12/18 11:50:42;;;;;;;9.40;6.20;;;-1.10;99.90;;;;;;4762688;29;19921;-31
2022/12/18 11:53:20;;;;;;;10.07;6.32;;;-1.10;99.90;;;;;;5213287;27;19918;-33
2022/12/18 11:55:58;;;;;;;9.30;5.68;;;-1.10;99.90;;;;;;5170252;27;20050;-33
2022/12/18 11:58:42;;;;;;;8.63;6.50;;;-1.10;99.90;;;;;;5141157;27;20122;-33
2022/12/18 12:01:17;;;;;;;10.00;6.25;;;-1.00;99.90;;;;;;5087354;28;20092;-33
2022/12/18 12:04:08;;;;;;;8.38;6.15;;;-1.00;99.90;;;;;;5006909;28;20044;-32
2022/12/18 12:06:39;;;;;;;9.75;6.43;;;-1.00;99.90;;;;;;4961238;28;20043;-34
2022/12/18 12:09:18;;;;;;;10.57;6.63;;;-1.00;99.90;;;;;;4973586;28;20055;-34
2022/12/18 12:11:49;;;;;;;9.18;6.57;;;-1.00;99.90;;;;;;4901117;29;21934;-34
2022/12/18 12:16:01;;;;;;;11.32;7.07;;;-1.00;99.90;;;;;;5207859;27;20127;-34
2022/12/18 12:18:46;;;;;;;7.82;6.15;;;-0.90;99.90;;;;;;5140829;27;20042;-33
2022/12/18 12:21:27;;;;;;;9.07;6.38;;;-0.90;99.90;;;;;;5121706;27;20042;-34
2022/12/18 12:24:26;;;;;;;8.80;6.75;;;-0.80;99.90;;;;;;5112179;28;20044;-34
2022/12/18 12:27:36;;;;;;;8.68;6.25;;;-0.90;99.90;;;;;;5050330;28;20042;-34
2022/12/18 12:52:14;;;;;;;9.27;6.57;;;-0.70;99.90;;;;;;5092061;22;20514;-81
2022/12/18 12:54:41;;;;;;;9.15;6.22;;;-0.60;99.90;;;;;;4815988;29;20078;-81
2022/12/18 12:57:34;;;;;;;10.43;6.50;;;-0.60;99.90;;;;;;4545743;30;20123;-80
2022/12/18 13:28:47;;;;;;;9.20;6.72;;;-0.30;99.90;;;;;;6252738;22;20016;-32
2022/12/18 13:31:40;;;;;;;11.88;7.10;;;-0.30;99.90;;;;;;6249855;22;20024;-33
2022/12/18 13:34:26;;;;;;;12.13;8.40;;;-0.30;99.90;;;;;;6200564;22;20020;-32
2022/12/18 13:36:54;;;;;;;11.48;7.05;;;-0.30;99.90;;;;;;6251332;22;20090;-31
2022/12/18 13:39:21;;;;;;;11.80;7.78;;;-0.30;99.90;;;;;;6248892;22;20451;-31
2022/12/18 13:41:50;;;;;;;11.55;7.70;;;-0.40;99.90;;;;;;6270784;22;20027;-32
2022/12/18 13:44:36;;;;;;;12.20;7.80;;;-0.40;99.90;;;;;;6157374;23;20036;-31
2022/12/18 13:47:34;;;;;;;10.55;7.32;;;-0.40;99.90;;;;;;6003128;23;20024;-32
2022/12/18 13:50:26;;;;;;;10.63;7.47;;;-0.40;99.90;;;;;;5173742;27;20134;-34
2022/12/18 13:52:53;;;;;;;11.65;7.95;;;-0.50;99.90;;;;;;5119796;27;20047;-35
2022/12/18 13:55:21;;;;;;;12.02;8.80;;;-0.50;99.90;;;;;;5083268;28;20048;-34
2022/12/18 13:57:47;;;;;;;10.75;8.90;;;-0.50;99.90;;;;;;5086867;28;20037;-34
2022/12/18 14:00:22;;;;;;;11.77;8.18;;;-0.50;99.90;;;;;;5031013;28;20357;-34
2022/12/18 14:02:50;;;;;;;11.38;8.45;;;-0.50;99.90;;;;;;4988307;28;20058;-34
2022/12/18 14:05:27;;;;;;;12.00;7.88;;;-0.60;99.90;;;;;;4849796;29;20046;-39
2022/12/18 14:07:54;;;;;;;11.35;8.45;;;-0.60;99.90;;;;;;4752873;29;20057;-35
2022/12/18 14:15:41;;;;;;;11.40;7.88;;;-0.70;99.90;;;;;;5070139;28;20037;-34
2022/12/18 14:18:09;;;;;;;11.07;8.57;;;-0.80;99.90;;;;;;5056035;28;20056;-34
2022/12/18 14:20:35;;;;;;;13.45;9.52;;;-0.80;99.90;;;;;;5018893;28;20092;-34
2022/12/18 14:23:01;;;;;;;11.93;8.27;;;-0.90;99.90;;;;;;5021294;28;20088;-34
2022/12/18 14:25:28;;;;;;;14.05;9.45;;;-0.90;99.90;;;;;;4955300;28;20037;-34
2022/12/18 14:28:24;;;;;;;16.33;9.98;;;-0.90;99.90;;;;;;4830346;29;20056;-34
2022/12/18 14:31:00;;;;;;;15.45;11.38;;;-1.00;99.90;;;;;;5145717;27;20411;-35
2022/12/18 14:33:27;;;;;;;14.52;10.38;;;-0.90;99.90;;;;;;5109972;27;20493;-34
2022/12/18 14:36:01;;;;;;;15.20;9.75;;;-1.00;99.90;;;;;;5061550;28;20116;-34
2022/12/18 14:38:39;;;;;;;14.88;9.77;;;-1.00;99.90;;;;;;5057665;28;20497;-34
2022/12/18 14:41:16;;;;;;;12.98;9.20;;;-1.00;99.90;;;;;;5027943;28;20053;-34
2022/12/18 14:43:50;;;;;;;14.55;9.75;;;-1.10;99.90;;;;;;4892118;28;20048;-34
2022/12/18 14:46:36;;;;;;;15.60;9.80;;;-1.10;99.90;;;;;;4711991;30;20069;-34
2022/12/18 14:49:33;;;;;;;15.23;10.15;;;-1.10;99.90;;;;;;4543173;30;20186;-34
2022/12/18 14:52:30;;;;;;;16.73;10.68;;;-1.20;99.90;;;;;;5189655;27;20601;-34